sensor_id;sensor_type;location;lat;lon;timestamp;pressure;altitude;pressure_sealevel;temperature;humidity
38530;BME280;24301;54.332;48.386;2023-04-28T00:02:02;98890.97;;;13.68;52.30
38530;BME280;24301;54.332;48.386;2023-04-28T00:04:28;98895.28;;;13.70;52.29
38530;BME280;24301;54.332;48.386;2023-04-28T00:06:54;98897.00;;;13.71;52.78
38530;BME280;24301;54.332;48.386;2023-04-28T00:09:20;98897.00;;;13.71;52.93
38530;BME280;24301;54.332;48.386;2023-04-28T00:11:46;98897.00;;;13.71;52.94
38530;BME280;24301;54.332;48.386;2023-04-28T00:14:12;98896.25;;;13.68;53.23
38530;BME280;24301;54.332;48.386;2023-04-28T00:16:38;98899.00;;;13.63;53.60
38530;BME280;24301;54.332;48.386;2023-04-28T00:19:04;98899.91;;;13.62;53.94
38530;BME280;24301;54.332;48.386;2023-04-28T00:21:30;98897.38;;;13.59;54.08
38530;BME280;24301;54.332;48.386;2023-04-28T00:23:56;98894.72;;;13.59;54.29
38530;BME280;24301;54.332;48.386;2023-04-28T00:26:22;98892.94;;;13.59;54.51
38530;BME280;24301;54.332;48.386;2023-04-28T00:28:49;98896.53;;;13.57;54.68
38530;BME280;24301;54.332;48.386;2023-04-28T00:31:15;98897.28;;;13.62;55.09
38530;BME280;24301;54.332;48.386;2023-04-28T00:33:42;98891.00;;;13.66;55.12
38530;BME280;24301;54.332;48.386;2023-04-28T00:36:09;98902.44;;;13.67;55.16
38530;BME280;24301;54.332;48.386;2023-04-28T00:38:36;98905.94;;;13.67;55.11
38530;BME280;24301;54.332;48.386;2023-04-28T00:41:02;98906.84;;;13.66;55.55
38530;BME280;24301;54.332;48.386;2023-04-28T00:43:29;98900.72;;;13.64;55.32
38530;BME280;24301;54.332;48.386;2023-04-28T00:45:55;98899.09;;;13.60;55.78
38530;BME280;24301;54.332;48.386;2023-04-28T00:48:21;98896.56;;;13.55;55.98
38530;BME280;24301;54.332;48.386;2023-04-28T00:50:48;98901.09;;;13.52;56.44
38530;BME280;24301;54.332;48.386;2023-04-28T00:53:15;98904.63;;;13.50;56.52
38530;BME280;24301;54.332;48.386;2023-04-28T00:55:41;98901.97;;;13.50;56.70
38530;BME280;24301;54.332;48.386;2023-04-28T00:58:07;98902.97;;;13.46;56.94
38530;BME280;24301;54.332;48.386;2023-04-28T01:00:34;98903.84;;;13.47;57.15
38530;BME280;24301;54.332;48.386;2023-04-28T01:03:00;98903.94;;;13.42;57.15
38530;BME280;24301;54.332;48.386;2023-04-28T01:05:29;98907.50;;;13.43;57.63
38530;BME280;24301;54.332;48.386;2023-04-28T01:07:55;98907.50;;;13.43;57.66
38530;BME280;24301;54.332;48.386;2023-04-28T01:10:21;98911.84;;;13.42;57.77
38530;BME280;24301;54.332;48.386;2023-04-28T01:12:47;98912.75;;;13.41;57.64
38530;BME280;24301;54.332;48.386;2023-04-28T01:15:18;98911.84;;;13.42;58.23
38530;BME280;24301;54.332;48.386;2023-04-28T01:17:46;98918.81;;;13.46;57.76
38530;BME280;24301;54.332;48.386;2023-04-28T01:20:13;98912.59;;;13.49;57.88
38530;BME280;24301;54.332;48.386;2023-04-28T01:22:40;98916.97;;;13.50;57.61
38530;BME280;24301;54.332;48.386;2023-04-28T01:25:07;98917.00;;;13.48;57.72
38530;BME280;24301;54.332;48.386;2023-04-28T01:27:33;98915.25;;;13.47;57.56
38530;BME280;24301;54.332;48.386;2023-04-28T01:30:00;98916.09;;;13.49;57.63
38530;BME280;24301;54.332;48.386;2023-04-28T01:32:26;98916.03;;;13.53;57.87
38530;BME280;24301;54.332;48.386;2023-04-28T01:34:52;98920.31;;;13.57;57.84
38530;BME280;24301;54.332;48.386;2023-04-28T01:37:18;98921.84;;;13.64;57.64
38530;BME280;24301;54.332;48.386;2023-04-28T01:39:44;98925.13;;;13.72;57.35
38530;BME280;24301;54.332;48.386;2023-04-28T01:42:10;98919.72;;;13.78;57.16
38530;BME280;24301;54.332;48.386;2023-04-28T01:44:36;98917.78;;;13.84;56.66
38530;BME280;24301;54.332;48.386;2023-04-28T01:47:02;98924.63;;;13.91;56.70
38530;BME280;24301;54.332;48.386;2023-04-28T01:49:28;98928.97;;;13.93;56.51
38530;BME280;24301;54.332;48.386;2023-04-28T01:51:54;98930.63;;;13.96;56.17
38530;BME280;24301;54.332;48.386;2023-04-28T01:54:20;98938.41;;;14.02;56.10
38530;BME280;24301;54.332;48.386;2023-04-28T01:56:46;98934.28;;;14.22;55.86
38530;BME280;24301;54.332;48.386;2023-04-28T01:59:14;98936.06;;;14.80;54.94
38530;BME280;24301;54.332;48.386;2023-04-28T02:01:40;98938.47;;;15.40;53.41
38530;BME280;24301;54.332;48.386;2023-04-28T02:04:06;98935.56;;;15.97;52.26
38530;BME280;24301;54.332;48.386;2023-04-28T02:06:34;98941.88;;;16.41;50.61
38530;BME280;24301;54.332;48.386;2023-04-28T02:09:00;98947.66;;;16.74;49.43
38530;BME280;24301;54.332;48.386;2023-04-28T02:11:27;98950.00;;;17.04;48.74
38530;BME280;24301;54.332;48.386;2023-04-28T02:13:56;98952.09;;;17.39;47.67
38530;BME280;24301;54.332;48.386;2023-04-28T02:16:42;98945.00;;;17.79;46.65
38530;BME280;24301;54.332;48.386;2023-04-28T02:19:10;98958.25;;;18.02;45.86
38530;BME280;24301;54.332;48.386;2023-04-28T02:21:35;98952.94;;;18.21;45.16
38530;BME280;24301;54.332;48.386;2023-04-28T02:24:01;98960.25;;;18.54;44.68
38530;BME280;24301;54.332;48.386;2023-04-28T02:26:30;98961.59;;;18.82;43.71
38530;BME280;24301;54.332;48.386;2023-04-28T02:28:56;98965.03;;;19.03;43.28
38530;BME280;24301;54.332;48.386;2023-04-28T02:31:22;98961.56;;;19.19;42.61
38530;BME280;24301;54.332;48.386;2023-04-28T02:33:48;98966.38;;;19.47;42.21
38530;BME280;24301;54.332;48.386;2023-04-28T02:36:14;98965.41;;;19.84;41.82
38530;BME280;24301;54.332;48.386;2023-04-28T02:38:40;98970.13;;;20.12;40.88
38530;BME280;24301;54.332;48.386;2023-04-28T02:41:10;98967.31;;;20.31;40.54
38530;BME280;24301;54.332;48.386;2023-04-28T02:43:36;98974.41;;;20.64;40.03
38530;BME280;24301;54.332;48.386;2023-04-28T02:46:03;98973.69;;;21.09;39.14
38530;BME280;24301;54.332;48.386;2023-04-28T02:48:29;98970.91;;;21.27;38.07
38530;BME280;24301;54.332;48.386;2023-04-28T02:50:55;98974.16;;;21.32;38.04
38530;BME280;24301;54.332;48.386;2023-04-28T02:53:21;98973.25;;;21.47;37.69
38530;BME280;24301;54.332;48.386;2023-04-28T02:55:48;98974.28;;;21.75;37.22
38530;BME280;24301;54.332;48.386;2023-04-28T02:58:14;98985.00;;;21.90;36.79
38530;BME280;24301;54.332;48.386;2023-04-28T03:00:42;98982.69;;;21.84;36.58
38530;BME280;24301;54.332;48.386;2023-04-28T03:03:08;98985.47;;;21.96;36.20
38530;BME280;24301;54.332;48.386;2023-04-28T03:05:34;98987.50;;;22.22;36.12
38530;BME280;24301;54.332;48.386;2023-04-28T03:08:00;98992.97;;;22.77;35.15
38530;BME280;24301;54.332;48.386;2023-04-28T03:10:26;98984.22;;;23.02;34.37
38530;BME280;24301;54.332;48.386;2023-04-28T03:12:52;98988.00;;;23.40;34.48
38530;BME280;24301;54.332;48.386;2023-04-28T03:15:18;98985.69;;;24.00;33.39
38530;BME280;24301;54.332;48.386;2023-04-28T03:17:44;98993.31;;;24.19;32.55
38530;BME280;24301;54.332;48.386;2023-04-28T03:20:11;99000.19;;;24.10;32.43
38530;BME280;24301;54.332;48.386;2023-04-28T03:22:37;99003.06;;;24.33;32.55
38530;BME280;24301;54.332;48.386;2023-04-28T03:25:04;99004.91;;;24.83;31.87
38530;BME280;24301;54.332;48.386;2023-04-28T03:27:33;99007.72;;;24.81;31.30
38530;BME280;24301;54.332;48.386;2023-04-28T03:30:02;99006.16;;;24.53;31.37
38530;BME280;24301;54.332;48.386;2023-04-28T03:32:29;99007.31;;;24.62;31.43
38530;BME280;24301;54.332;48.386;2023-04-28T03:34:55;99016.25;;;24.49;31.07
38530;BME280;24301;54.332;48.386;2023-04-28T03:37:21;99011.78;;;24.24;31.32
38530;BME280;24301;54.332;48.386;2023-04-28T03:39:47;99018.09;;;24.36;31.27
38530;BME280;24301;54.332;48.386;2023-04-28T03:42:13;99015.47;;;24.60;31.11
38530;BME280;24301;54.332;48.386;2023-04-28T03:45:05;99007.22;;;24.76;30.63
38530;BME280;24301;54.332;48.386;2023-04-28T03:47:33;99008.47;;;24.71;30.75
38530;BME280;24301;54.332;48.386;2023-04-28T03:49:59;99012.88;;;24.72;30.61
38530;BME280;24301;54.332;48.386;2023-04-28T03:52:25;99006.09;;;24.79;30.49
38530;BME280;24301;54.332;48.386;2023-04-28T03:54:52;99008.81;;;25.28;30.18
38530;BME280;24301;54.332;48.386;2023-04-28T03:57:22;99016.56;;;25.68;29.31
38530;BME280;24301;54.332;48.386;2023-04-28T04:00:13;99020.66;;;25.85;28.62
38530;BME280;24301;54.332;48.386;2023-04-28T04:02:42;99018.13;;;25.59;29.24
38530;BME280;24301;54.332;48.386;2023-04-28T04:05:08;99015.91;;;26.00;28.63
38530;BME280;24301;54.332;48.386;2023-04-28T04:07:53;99025.75;;;26.47;28.43
38530;BME280;24301;54.332;48.386;2023-04-28T04:10:26;99027.91;;;26.64;28.34
38530;BME280;24301;54.332;48.386;2023-04-28T04:12:53;99034.78;;;26.68;27.84
38530;BME280;24301;54.332;48.386;2023-04-28T04:15:19;99031.78;;;27.06;27.61
38530;BME280;24301;54.332;48.386;2023-04-28T04:17:46;99040.50;;;27.09;27.00
38530;BME280;24301;54.332;48.386;2023-04-28T04:20:21;99037.69;;;27.00;27.08
38530;BME280;24301;54.332;48.386;2023-04-28T04:23:09;99044.06;;;26.99;26.98
38530;BME280;24301;54.332;48.386;2023-04-28T04:25:35;99037.75;;;26.65;27.55
38530;BME280;24301;54.332;48.386;2023-04-28T04:28:07;99038.47;;;26.56;27.38
38530;BME280;24301;54.332;48.386;2023-04-28T04:30:33;99045.56;;;26.68;27.25
38530;BME280;24301;54.332;48.386;2023-04-28T04:32:59;99043.63;;;26.48;27.61
38530;BME280;24301;54.332;48.386;2023-04-28T04:35:25;99045.63;;;27.13;27.00
38530;BME280;24301;54.332;48.386;2023-04-28T04:37:56;99050.69;;;28.14;25.63
38530;BME280;24301;54.332;48.386;2023-04-28T04:47:35;99055.44;;;28.00;26.05
38530;BME280;24301;54.332;48.386;2023-04-28T04:50:09;99050.03;;;29.44;24.77
38530;BME280;24301;54.332;48.386;2023-04-28T04:52:36;99057.09;;;29.25;24.45
38530;BME280;24301;54.332;48.386;2023-04-28T04:55:04;99064.59;;;28.61;24.74
38530;BME280;24301;54.332;48.386;2023-04-28T04:57:58;99054.88;;;28.49;25.25
38530;BME280;24301;54.332;48.386;2023-04-28T05:00:49;99059.00;;;28.53;25.10
38530;BME280;24301;54.332;48.386;2023-04-28T05:03:15;99055.66;;;28.39;25.54
38530;BME280;24301;54.332;48.386;2023-04-28T05:05:41;99063.53;;;28.43;25.39
38530;BME280;24301;54.332;48.386;2023-04-28T05:08:18;99072.25;;;28.56;25.26
38530;BME280;24301;54.332;48.386;2023-04-28T05:10:44;99074.47;;;29.33;24.31
38530;BME280;24301;54.332;48.386;2023-04-28T05:13:10;99071.31;;;29.18;24.54
38530;BME280;24301;54.332;48.386;2023-04-28T05:15:36;99081.38;;;28.96;24.58
38530;BME280;24301;54.332;48.386;2023-04-28T05:18:18;99083.13;;;29.07;24.80
38530;BME280;24301;54.332;48.386;2023-04-28T05:20:44;99078.63;;;29.47;24.51
38530;BME280;24301;54.332;48.386;2023-04-28T05:23:11;99080.94;;;29.51;24.26
38530;BME280;24301;54.332;48.386;2023-04-28T05:25:37;99082.94;;;29.49;24.13
38530;BME280;24301;54.332;48.386;2023-04-28T05:28:04;99079.50;;;29.67;24.34
38530;BME280;24301;54.332;48.386;2023-04-28T05:30:32;99081.06;;;29.60;24.30
38530;BME280;24301;54.332;48.386;2023-04-28T05:32:58;99086.00;;;29.35;24.74
38530;BME280;24301;54.332;48.386;2023-04-28T05:35:25;99089.56;;;29.35;24.44
38530;BME280;24301;54.332;48.386;2023-04-28T05:37:51;99084.00;;;29.37;24.83
38530;BME280;24301;54.332;48.386;2023-04-28T05:40:17;99095.31;;;29.62;24.29
38530;BME280;24301;54.332;48.386;2023-04-28T05:42:43;99094.59;;;30.09;24.03
38530;BME280;24301;54.332;48.386;2023-04-28T05:45:10;99091.00;;;30.18;24.02
38530;BME280;24301;54.332;48.386;2023-04-28T05:47:36;99088.25;;;30.86;23.46
38530;BME280;24301;54.332;48.386;2023-04-28T05:50:37;99098.56;;;31.28;22.77
38530;BME280;24301;54.332;48.386;2023-04-28T05:56:48;99094.53;;;30.76;23.00
38530;BME280;24301;54.332;48.386;2023-04-28T05:59:37;99095.03;;;31.46;22.69
38530;BME280;24301;54.332;48.386;2023-04-28T06:02:03;99099.47;;;31.19;22.56
38530;BME280;24301;54.332;48.386;2023-04-28T06:04:29;99091.13;;;31.02;22.86
38530;BME280;24301;54.332;48.386;2023-04-28T06:06:55;99097.72;;;30.72;23.35
38530;BME280;24301;54.332;48.386;2023-04-28T06:09:25;99103.03;;;31.47;22.75
38530;BME280;24301;54.332;48.386;2023-04-28T06:11:52;99098.69;;;31.54;22.15
38530;BME280;24301;54.332;48.386;2023-04-28T06:14:18;99096.16;;;31.43;22.34
38530;BME280;24301;54.332;48.386;2023-04-28T06:16:44;99097.72;;;31.64;22.08
38530;BME280;24301;54.332;48.386;2023-04-28T06:19:10;99096.75;;;31.83;21.63
38530;BME280;24301;54.332;48.386;2023-04-28T06:21:36;99098.75;;;31.63;21.71
38530;BME280;24301;54.332;48.386;2023-04-28T06:24:05;99105.38;;;31.78;21.36
38530;BME280;24301;54.332;48.386;2023-04-28T06:26:31;99103.91;;;32.10;21.77
38530;BME280;24301;54.332;48.386;2023-04-28T06:28:57;99102.44;;;32.43;21.11
38530;BME280;24301;54.332;48.386;2023-04-28T06:31:23;99100.09;;;33.17;21.00
38530;BME280;24301;54.332;48.386;2023-04-28T06:33:51;99108.72;;;33.89;19.78
38530;BME280;24301;54.332;48.386;2023-04-28T06:36:17;99108.50;;;32.89;20.15
38530;BME280;24301;54.332;48.386;2023-04-28T06:38:44;99117.25;;;31.77;21.55
38530;BME280;24301;54.332;48.386;2023-04-28T06:41:10;99117.47;;;31.20;22.21
38530;BME280;24301;54.332;48.386;2023-04-28T06:43:37;99108.28;;;31.03;22.33
38530;BME280;24301;54.332;48.386;2023-04-28T06:46:07;99119.25;;;31.29;22.07
38530;BME280;24301;54.332;48.386;2023-04-28T06:48:34;99114.50;;;31.59;22.10
38530;BME280;24301;54.332;48.386;2023-04-28T06:51:06;99120.41;;;31.91;21.92
38530;BME280;24301;54.332;48.386;2023-04-28T06:53:36;99105.41;;;32.31;21.26
38530;BME280;24301;54.332;48.386;2023-04-28T06:56:02;99111.69;;;32.05;21.73
38530;BME280;24301;54.332;48.386;2023-04-28T06:58:28;99115.09;;;32.07;21.04
38530;BME280;24301;54.332;48.386;2023-04-28T07:00:54;99106.97;;;31.71;21.23
38530;BME280;24301;54.332;48.386;2023-04-28T07:03:20;99112.88;;;31.48;21.35
38530;BME280;24301;54.332;48.386;2023-04-28T07:05:46;99108.88;;;32.33;21.23
38530;BME280;24301;54.332;48.386;2023-04-28T07:08:12;99102.56;;;32.59;20.84
38530;BME280;24301;54.332;48.386;2023-04-28T07:10:37;99105.28;;;32.59;19.86
38530;BME280;24301;54.332;48.386;2023-04-28T07:13:03;99112.06;;;32.10;20.68
38530;BME280;24301;54.332;48.386;2023-04-28T07:15:29;99109.03;;;31.41;20.94
38530;BME280;24301;54.332;48.386;2023-04-28T07:18:15;99114.34;;;31.97;20.78
38530;BME280;24301;54.332;48.386;2023-04-28T07:21:32;99115.75;;;31.19;20.97
38530;BME280;24301;54.332;48.386;2023-04-28T07:25:06;99110.59;;;31.62;20.85
38530;BME280;24301;54.332;48.386;2023-04-28T07:28:32;99116.59;;;31.84;20.63
38530;BME280;24301;54.332;48.386;2023-04-28T07:30:50;99110.44;;;31.17;20.92
38530;BME280;24301;54.332;48.386;2023-04-28T07:33:15;99109.66;;;31.35;20.54
38530;BME280;24301;54.332;48.386;2023-04-28T07:35:41;99101.19;;;31.20;21.03
38530;BME280;24301;54.332;48.386;2023-04-28T07:38:07;99102.94;;;31.11;21.06
38530;BME280;24301;54.332;48.386;2023-04-28T07:40:33;99095.88;;;30.62;21.22
38530;BME280;24301;54.332;48.386;2023-04-28T07:42:59;99105.44;;;29.79;21.94
38530;BME280;24301;54.332;48.386;2023-04-28T07:45:25;99091.91;;;29.79;22.31
38530;BME280;24301;54.332;48.386;2023-04-28T07:47:51;99098.16;;;30.57;21.78
38530;BME280;24301;54.332;48.386;2023-04-28T07:50:17;99089.19;;;31.22;21.34
38530;BME280;24301;54.332;48.386;2023-04-28T07:52:43;99094.94;;;31.56;20.77
38530;BME280;24301;54.332;48.386;2023-04-28T07:55:09;99103.22;;;31.54;20.53
38530;BME280;24301;54.332;48.386;2023-04-28T07:57:35;99098.19;;;31.41;20.96
38530;BME280;24301;54.332;48.386;2023-04-28T08:00:02;99100.88;;;31.23;20.90
38530;BME280;24301;54.332;48.386;2023-04-28T08:02:37;99091.59;;;30.70;21.15
38530;BME280;24301;54.332;48.386;2023-04-28T08:05:03;99099.00;;;29.61;22.16
38530;BME280;24301;54.332;48.386;2023-04-28T08:07:35;99093.97;;;28.23;23.84
38530;BME280;24301;54.332;48.386;2023-04-28T08:10:04;99091.38;;;26.91;25.59
38530;BME280;24301;54.332;48.386;2023-04-28T08:12:31;99079.53;;;26.13;26.46
38530;BME280;24301;54.332;48.386;2023-04-28T08:14:57;99083.75;;;25.57;27.13
38530;BME280;24301;54.332;48.386;2023-04-28T08:17:23;99082.28;;;24.65;27.88
38530;BME280;24301;54.332;48.386;2023-04-28T08:19:49;99076.00;;;23.87;28.97
38530;BME280;24301;54.332;48.386;2023-04-28T08:22:15;99078.38;;;23.38;30.00
38530;BME280;24301;54.332;48.386;2023-04-28T08:24:41;99077.50;;;23.23;29.93
38530;BME280;24301;54.332;48.386;2023-04-28T08:27:07;99078.28;;;22.98;30.32
38530;BME280;24301;54.332;48.386;2023-04-28T08:29:33;99075.34;;;22.59;30.88
38530;BME280;24301;54.332;48.386;2023-04-28T08:31:59;99071.03;;;22.42;31.38
38530;BME280;24301;54.332;48.386;2023-04-28T08:34:29;99064.31;;;22.34;31.52
38530;BME280;24301;54.332;48.386;2023-04-28T08:36:57;99066.22;;;22.32;31.96
38530;BME280;24301;54.332;48.386;2023-04-28T08:39:48;99062.88;;;22.43;31.22
38530;BME280;24301;54.332;48.386;2023-04-28T08:42:15;99075.91;;;22.35;31.48
38530;BME280;24301;54.332;48.386;2023-04-28T08:44:42;99064.41;;;22.18;30.92
38530;BME280;24301;54.332;48.386;2023-04-28T08:47:12;99056.97;;;22.38;30.82
38530;BME280;24301;54.332;48.386;2023-04-28T08:49:40;99062.16;;;22.56;30.53
38530;BME280;24301;54.332;48.386;2023-04-28T08:52:11;99061.97;;;22.59;29.38
38530;BME280;24301;54.332;48.386;2023-04-28T08:54:39;99051.66;;;22.52;29.24
38530;BME280;24301;54.332;48.386;2023-04-28T09:08:35;99024.38;;;22.17;28.06
38530;BME280;24301;54.332;48.386;2023-04-28T09:11:13;99050.47;;;22.42;27.49
38530;BME280;24301;54.332;48.386;2023-04-28T09:13:41;99045.78;;;22.46;27.56
38530;BME280;24301;54.332;48.386;2023-04-28T09:16:43;99050.03;;;22.50;27.87
38530;BME280;24301;54.332;48.386;2023-04-28T09:19:21;99036.44;;;22.38;28.08
38530;BME280;24301;54.332;48.386;2023-04-28T09:22:12;99044.91;;;22.45;28.12
38530;BME280;24301;54.332;48.386;2023-04-28T09:24:41;99047.28;;;22.06;29.16
38530;BME280;24301;54.332;48.386;2023-04-28T09:27:43;99044.81;;;21.89;28.72
38530;BME280;24301;54.332;48.386;2023-04-28T09:30:09;99040.34;;;22.04;28.56
38530;BME280;24301;54.332;48.386;2023-04-28T09:32:39;99038.31;;;22.07;28.60
38530;BME280;24301;54.332;48.386;2023-04-28T09:35:43;99038.34;;;22.36;28.43
38530;BME280;24301;54.332;48.386;2023-04-28T09:39:08;99041.22;;;22.48;28.08
38530;BME280;24301;54.332;48.386;2023-04-28T09:42:02;99047.47;;;22.48;27.96
38530;BME280;24301;54.332;48.386;2023-04-28T09:45:27;99052.09;;;22.16;28.58
38530;BME280;24301;54.332;48.386;2023-04-28T09:48:17;99034.69;;;22.08;29.15
38530;BME280;24301;54.332;48.386;2023-04-28T09:51:20;99039.84;;;22.26;29.29
38530;BME280;24301;54.332;48.386;2023-04-28T09:53:59;99044.06;;;22.30;28.98
38530;BME280;24301;54.332;48.386;2023-04-28T09:56:28;99042.16;;;22.18;28.79
38530;BME280;24301;54.332;48.386;2023-04-28T09:59:03;99046.84;;;22.00;28.83
38530;BME280;24301;54.332;48.386;2023-04-28T10:01:45;99032.00;;;22.08;29.38
38530;BME280;24301;54.332;48.386;2023-04-28T10:04:54;99041.47;;;22.14;29.25
38530;BME280;24301;54.332;48.386;2023-04-28T10:07:24;99050.38;;;22.15;29.07
38530;BME280;24301;54.332;48.386;2023-04-28T10:11:31;99041.47;;;22.14;29.39
38530;BME280;24301;54.332;48.386;2023-04-28T10:14:51;99032.50;;;22.44;29.02
38530;BME280;24301;54.332;48.386;2023-04-28T10:18:49;99044.53;;;22.80;28.62
38530;BME280;24301;54.332;48.386;2023-04-28T10:28:45;99039.56;;;22.16;29.81
38530;BME280;24301;54.332;48.386;2023-04-28T10:31:12;99044.66;;;22.21;29.47
38530;BME280;24301;54.332;48.386;2023-04-28T10:33:39;99039.28;;;22.35;29.11
38530;BME280;24301;54.332;48.386;2023-04-28T10:36:06;99049.25;;;22.48;29.12
38530;BME280;24301;54.332;48.386;2023-04-28T10:38:33;99039.13;;;22.38;28.78
38530;BME280;24301;54.332;48.386;2023-04-28T10:41:00;99030.13;;;22.39;29.58
38530;BME280;24301;54.332;48.386;2023-04-28T10:43:33;99032.81;;;22.54;29.26
38530;BME280;24301;54.332;48.386;2023-04-28T10:46:03;99030.69;;;22.45;28.82
38530;BME280;24301;54.332;48.386;2023-04-28T10:51:22;99020.94;;;22.58;28.79
38530;BME280;24301;54.332;48.386;2023-04-28T10:56:23;99025.88;;;22.79;28.26
38530;BME280;24301;54.332;48.386;2023-04-28T10:58:51;99019.22;;;22.72;28.28
38530;BME280;24301;54.332;48.386;2023-04-28T11:06:26;99019.63;;;22.51;28.09
38530;BME280;24301;54.332;48.386;2023-04-28T11:11:30;99019.03;;;22.60;28.18
38530;BME280;24301;54.332;48.386;2023-04-28T11:16:50;99011.94;;;22.45;28.57
38530;BME280;24301;54.332;48.386;2023-04-28T11:21:53;99006.91;;;22.55;28.47
38530;BME280;24301;54.332;48.386;2023-04-28T11:24:23;99012.06;;;22.58;28.20
38530;BME280;24301;54.332;48.386;2023-04-28T11:26:54;99013.94;;;22.41;28.79
38530;BME280;24301;54.332;48.386;2023-04-28T11:29:39;99011.28;;;22.27;28.53
38530;BME280;24301;54.332;48.386;2023-04-28T11:32:09;99003.94;;;22.16;28.85
38530;BME280;24301;54.332;48.386;2023-04-28T11:34:36;99004.88;;;22.29;28.75
38530;BME280;24301;54.332;48.386;2023-04-28T11:37:02;98991.78;;;22.39;28.50
38530;BME280;24301;54.332;48.386;2023-04-28T11:39:33;99002.09;;;22.60;28.62
38530;BME280;24301;54.332;48.386;2023-04-28T11:42:01;99001.94;;;22.48;28.32
38530;BME280;24301;54.332;48.386;2023-04-28T11:44:29;98999.16;;;22.50;28.31
38530;BME280;24301;54.332;48.386;2023-04-28T11:46:57;98984.13;;;22.47;28.60
38530;BME280;24301;54.332;48.386;2023-04-28T11:49:28;98999.91;;;22.66;28.66
38530;BME280;24301;54.332;48.386;2023-04-28T11:51:56;98994.22;;;22.71;28.31
38530;BME280;24301;54.332;48.386;2023-04-28T11:54:26;99002.94;;;22.75;28.39
38530;BME280;24301;54.332;48.386;2023-04-28T11:56:54;99004.66;;;22.76;28.21
38530;BME280;24301;54.332;48.386;2023-04-28T11:59:28;99000.59;;;22.56;28.49
38530;BME280;24301;54.332;48.386;2023-04-28T12:01:57;98994.16;;;22.44;29.22
38530;BME280;24301;54.332;48.386;2023-04-28T12:04:31;98989.41;;;22.49;29.15
38530;BME280;24301;54.332;48.386;2023-04-28T12:07:14;98997.25;;;22.52;29.69
38530;BME280;24301;54.332;48.386;2023-04-28T12:09:45;98986.97;;;22.44;29.84
38530;BME280;24301;54.332;48.386;2023-04-28T12:12:28;98994.00;;;22.47;30.11
38530;BME280;24301;54.332;48.386;2023-04-28T12:17:37;98992.25;;;22.46;29.23
38530;BME280;24301;54.332;48.386;2023-04-28T12:20:09;98979.16;;;22.41;29.56
38530;BME280;24301;54.332;48.386;2023-04-28T12:22:44;98976.59;;;22.39;29.66
38530;BME280;24301;54.332;48.386;2023-04-28T12:25:16;98979.84;;;22.30;29.25
38530;BME280;24301;54.332;48.386;2023-04-28T12:28:14;98975.72;;;22.39;29.52
38530;BME280;24301;54.332;48.386;2023-04-28T12:30:40;98977.53;;;22.53;29.35
38530;BME280;24301;54.332;48.386;2023-04-28T12:33:48;98971.34;;;22.52;29.11
38530;BME280;24301;54.332;48.386;2023-04-28T12:36:15;98967.97;;;22.34;29.06
38530;BME280;24301;54.332;48.386;2023-04-28T12:38:47;98974.59;;;22.29;29.07
38530;BME280;24301;54.332;48.386;2023-04-28T12:41:16;98970.97;;;22.30;29.46
38530;BME280;24301;54.332;48.386;2023-04-28T12:43:43;98967.41;;;22.44;29.15
38530;BME280;24301;54.332;48.386;2023-04-28T12:46:09;98960.91;;;22.33;28.80
38530;BME280;24301;54.332;48.386;2023-04-28T12:48:37;98958.13;;;22.35;28.90
38530;BME280;24301;54.332;48.386;2023-04-28T12:51:03;98962.63;;;22.34;29.12
38530;BME280;24301;54.332;48.386;2023-04-28T12:53:29;98967.31;;;22.31;28.98
38530;BME280;24301;54.332;48.386;2023-04-28T12:55:55;98966.38;;;22.32;28.78
38530;BME280;24301;54.332;48.386;2023-04-28T12:58:21;98960.53;;;22.39;28.95
38530;BME280;24301;54.332;48.386;2023-04-28T13:00:47;98958.41;;;22.30;28.75
38530;BME280;24301;54.332;48.386;2023-04-28T13:03:12;98963.22;;;22.25;28.71
38530;BME280;24301;54.332;48.386;2023-04-28T13:06:08;98971.53;;;22.20;28.78
38530;BME280;24301;54.332;48.386;2023-04-28T13:08:36;98967.78;;;22.08;29.09
38530;BME280;24301;54.332;48.386;2023-04-28T13:11:02;98959.09;;;22.19;29.33
38530;BME280;24301;54.332;48.386;2023-04-28T13:13:30;98963.13;;;22.12;29.35
38530;BME280;24301;54.332;48.386;2023-04-28T13:15:57;98957.50;;;22.17;29.61
38530;BME280;24301;54.332;48.386;2023-04-28T13:18:23;98957.50;;;22.17;29.16
38530;BME280;24301;54.332;48.386;2023-04-28T13:20:49;98946.31;;;22.10;29.68
38530;BME280;24301;54.332;48.386;2023-04-28T13:23:15;98955.38;;;22.22;29.33
38530;BME280;24301;54.332;48.386;2023-04-28T13:25:41;98964.56;;;22.18;29.48
38530;BME280;24301;54.332;48.386;2023-04-28T13:28:07;98963.78;;;22.01;29.61
38530;BME280;24301;54.332;48.386;2023-04-28T13:30:32;98959.78;;;21.94;29.69
38530;BME280;24301;54.332;48.386;2023-04-28T13:32:59;98964.06;;;21.96;29.71
38530;BME280;24301;54.332;48.386;2023-04-28T13:35:25;98958.06;;;21.93;29.70
38530;BME280;24301;54.332;48.386;2023-04-28T13:37:52;98960.94;;;21.90;29.64
38530;BME280;24301;54.332;48.386;2023-04-28T13:40:26;98961.78;;;21.90;29.57
38530;BME280;24301;54.332;48.386;2023-04-28T13:42:56;98956.34;;;21.92;29.47
38530;BME280;24301;54.332;48.386;2023-04-28T13:45:22;98953.56;;;21.93;29.58
38530;BME280;24301;54.332;48.386;2023-04-28T13:47:47;98945.47;;;21.95;29.74
38530;BME280;24301;54.332;48.386;2023-04-28T13:50:21;98946.88;;;21.86;29.85
38530;BME280;24301;54.332;48.386;2023-04-28T13:52:47;98934.38;;;21.72;29.73
38530;BME280;24301;54.332;48.386;2023-04-28T13:55:13;98953.19;;;21.85;29.81
38530;BME280;24301;54.332;48.386;2023-04-28T13:57:39;98950.63;;;21.98;29.87
38530;BME280;24301;54.332;48.386;2023-04-28T14:00:06;98950.03;;;22.07;29.57
38530;BME280;24301;54.332;48.386;2023-04-28T14:02:33;98951.38;;;22.15;29.50